Time;durP1;ratioP1;P1;durP2;ratioP2;P2;SDS_P1;SDS_P2;PMS_P1;PMS_P2;Temp;Humidity;BMP_temperature;BMP_pressure;BME280_temperature;BME280_humidity;BME280_pressure;Samples;Min_cycle;Max_cycle;Signal;HPM_P1;HPM_P2
2022/06/15 00:00:44;;;;;;;15.60;6.55;;;12.30;99.90;;;;;;5095223;28;20053;-76
2022/06/15 00:03:13;;;;;;;20.77;7.00;;;12.30;99.90;;;;;;5077076;28;20456;-76
2022/06/15 00:05:42;;;;;;;19.90;6.82;;;12.30;99.90;;;;;;5094073;28;20054;-76
2022/06/15 00:08:08;;;;;;;16.95;6.90;;;12.30;99.90;;;;;;5094383;28;20048;-76
2022/06/15 00:10:34;;;;;;;15.20;6.67;;;12.20;99.90;;;;;;5110818;28;20060;-76
2022/06/15 00:13:00;;;;;;;17.70;7.47;;;;;;;;;;5094974;28;20104;-75
2022/06/15 00:15:26;;;;;;;17.23;6.80;;;12.50;99.90;;;;;;5093877;28;20090;-76
2022/06/15 00:17:52;;;;;;;20.27;6.72;;;12.10;99.90;;;;;;5093318;28;20084;-76
2022/06/15 00:20:18;;;;;;;14.25;6.60;;;12.10;99.90;;;;;;5094525;28;20051;-77
2022/06/15 00:22:44;;;;;;;14.63;6.75;;;12.00;99.90;;;;;;5076557;28;20135;-76
2022/06/15 00:25:10;;;;;;;16.52;7.10;;;12.00;99.90;;;;;;5094097;28;20126;-76
2022/06/15 00:27:36;;;;;;;18.45;7.00;;;12.00;99.90;;;;;;5095060;28;20071;-76
2022/06/15 00:30:04;;;;;;;20.08;7.28;;;12.00;99.90;;;;;;5093399;28;20084;-77
2022/06/15 00:32:29;;;;;;;18.40;7.70;;;11.90;99.90;;;;;;5093329;28;20067;-76
2022/06/15 00:34:55;;;;;;;16.17;7.07;;;11.90;99.90;;;;;;5093323;28;20044;-76
2022/06/15 00:37:21;;;;;;;15.75;7.10;;;11.90;99.90;;;;;;5094472;28;20480;-76
2022/06/15 00:39:47;;;;;;;15.55;6.85;;;11.80;99.90;;;;;;5093606;28;20426;-76
2022/06/15 00:42:13;;;;;;;17.55;6.90;;;11.80;99.90;;;;;;5060373;28;20508;-76
2022/06/15 00:44:42;;;;;;;16.85;7.22;;;11.80;99.90;;;;;;5093991;28;20067;-76
2022/06/15 00:47:36;;;;;;;16.50;7.15;;;11.80;99.90;;;;;;5094198;28;20127;-78
2022/06/15 00:50:18;;;;;;;14.77;7.32;;;11.70;99.90;;;;;;5092301;28;20063;-76
2022/06/15 00:52:47;;;;;;;14.90;6.68;;;11.70;99.90;;;;;;5092753;28;20054;-76
2022/06/15 00:55:20;;;;;;;14.70;7.07;;;11.70;99.90;;;;;;5093876;28;20048;-76
2022/06/15 00:57:46;;;;;;;13.75;6.85;;;11.70;99.90;;;;;;5094249;28;20044;-76
2022/06/15 01:00:12;;;;;;;15.32;6.90;;;11.60;99.90;;;;;;5076102;28;20498;-76
2022/06/15 01:02:39;;;;;;;16.27;7.20;;;11.60;99.90;;;;;;5076183;28;20058;-77
2022/06/15 01:05:22;;;;;;;18.27;7.00;;;11.60;99.90;;;;;;5093890;28;20063;-76
2022/06/15 01:08:09;;;;;;;15.93;6.88;;;11.60;99.90;;;;;;5094399;28;20399;-76
2022/06/15 01:11:00;;;;;;;15.98;7.35;;;11.50;99.90;;;;;;5075694;28;20059;-77
2022/06/15 01:13:56;;;;;;;20.88;7.05;;;11.50;99.90;;;;;;5093078;28;20048;-77
2022/06/15 01:16:49;;;;;;;16.27;7.25;;;11.60;99.90;;;;;;5092585;28;20090;-77
2022/06/15 01:19:45;;;;;;;19.33;7.45;;;11.50;99.90;;;;;;5092778;28;20078;-77
2022/06/15 01:22:53;;;;;;;20.17;7.85;;;11.40;99.90;;;;;;5093426;28;20200;-76
2022/06/15 01:25:41;;;;;;;18.05;7.25;;;11.40;99.90;;;;;;5075441;28;20143;-77
2022/06/15 01:28:34;;;;;;;19.77;7.95;;;11.30;99.90;;;;;;5092623;28;20040;-76
2022/06/15 01:31:20;;;;;;;16.90;7.40;;;11.30;99.90;;;;;;5092756;28;20063;-76
2022/06/15 01:34:13;;;;;;;24.10;9.25;;;11.20;99.90;;;;;;5094016;28;20127;-77
2022/06/15 01:36:57;;;;;;;22.17;10.10;;;11.20;99.90;;;;;;5092950;28;20052;-77
2022/06/15 01:39:37;;;;;;;20.73;8.57;;;11.20;99.90;;;;;;5093141;28;20051;-77
2022/06/15 01:42:32;;;;;;;23.17;10.45;;;11.20;99.90;;;;;;5109598;28;20427;-75
2022/06/15 01:45:09;;;;;;;24.35;11.18;;;11.20;99.90;;;;;;5093116;28;20120;-75
2022/06/15 01:47:38;;;;;;;18.90;8.07;;;11.10;99.90;;;;;;5093115;28;20047;-77
2022/06/15 01:50:18;;;;;;;17.50;7.10;;;11.10;99.90;;;;;;5091722;28;20043;-75
2022/06/15 01:52:49;;;;;;;18.70;8.00;;;11.10;99.90;;;;;;5092415;28;20043;-78
2022/06/15 01:55:28;;;;;;;16.73;7.40;;;11.10;99.90;;;;;;5092764;28;20052;-75
2022/06/15 01:57:58;;;;;;;20.27;7.72;;;11.00;99.90;;;;;;5092833;28;20127;-77
2022/06/15 02:00:24;;;;;;;22.08;7.97;;;11.10;99.90;;;;;;5093076;28;20253;-78
2022/06/15 02:03:12;;;;;;;13.88;7.07;;;11.00;99.90;;;;;;5091672;28;20460;-78
2022/06/15 02:05:45;;;;;;;16.02;7.63;;;11.00;99.90;;;;;;5091467;28;20365;-76
2022/06/15 02:08:20;;;;;;;15.10;6.75;;;10.90;99.90;;;;;;5092730;28;20464;-76
2022/06/15 02:11:01;;;;;;;17.45;7.63;;;10.90;99.90;;;;;;5092109;28;20058;-76
2022/06/15 02:13:42;;;;;;;19.38;7.78;;;10.90;99.90;;;;;;5092938;28;20376;-76
2022/06/15 02:16:16;;;;;;;17.23;7.40;;;10.90;99.90;;;;;;5109939;28;20043;-77
2022/06/15 02:18:46;;;;;;;19.95;7.22;;;10.80;99.90;;;;;;5098166;28;20051;-79
2022/06/15 02:21:16;;;;;;;17.02;7.15;;;10.80;99.90;;;;;;5096699;28;20130;-79
2022/06/15 02:23:43;;;;;;;17.38;7.68;;;10.80;99.90;;;;;;5094448;28;20487;-79
2022/06/15 02:26:09;;;;;;;25.17;7.88;;;10.80;99.90;;;;;;5094755;28;20051;-75
2022/06/15 02:28:39;;;;;;;19.07;8.00;;;10.80;99.90;;;;;;5098880;28;20056;-78
2022/06/15 02:31:06;;;;;;;17.88;7.47;;;10.70;99.90;;;;;;5089710;28;20337;-78
2022/06/15 02:33:36;;;;;;;20.30;8.57;;;10.70;99.90;;;;;;5108033;28;20095;-79
2022/06/15 02:36:02;;;;;;;19.60;8.68;;;10.70;99.90;;;;;;5104835;28;20076;-77
2022/06/15 02:39:07;;;;;;;20.92;9.50;;;10.70;99.90;;;;;;5101021;27;20408;-79
2022/06/15 02:41:34;;;;;;;18.95;8.85;;;10.70;99.90;;;;;;5090224;28;20064;-77
2022/06/15 02:44:01;;;;;;;23.90;9.18;;;10.70;99.90;;;;;;5080626;28;20076;-78
2022/06/15 02:46:31;;;;;;;22.45;10.23;;;10.70;99.90;;;;;;5059515;28;20132;-79
2022/06/15 02:48:57;;;;;;;25.55;11.65;;;10.70;99.90;;;;;;5075574;28;20056;-78
2022/06/15 02:51:41;;;;;;;18.10;8.80;;;10.70;99.90;;;;;;5074819;28;20048;-78
2022/06/15 02:54:34;;;;;;;16.80;7.35;;;10.60;99.90;;;;;;5073973;28;20286;-78
2022/06/15 02:57:00;;;;;;;16.98;7.60;;;10.60;99.90;;;;;;5088622;28;20044;-78
2022/06/15 02:59:29;;;;;;;22.63;7.70;;;10.60;99.90;;;;;;5074332;28;20048;-77
2022/06/15 03:01:56;;;;;;;16.20;7.40;;;10.60;99.90;;;;;;5053838;28;20071;-77
2022/06/15 03:04:22;;;;;;;19.00;7.75;;;10.60;99.90;;;;;;5070949;28;20059;-76
2022/06/15 03:06:48;;;;;;;17.33;7.47;;;10.60;99.90;;;;;;5072789;28;20091;-78
2022/06/15 03:09:13;;;;;;;17.13;6.88;;;10.60;99.90;;;;;;5070307;28;20048;-77
2022/06/15 03:11:40;;;;;;;20.13;7.70;;;10.70;99.90;;;;;;5052670;28;20049;-77
2022/06/15 03:14:06;;;;;;;21.60;7.85;;;10.60;99.90;;;;;;5071385;28;20463;-76
2022/06/15 03:16:43;;;;;;;21.20;7.82;;;10.60;99.90;;;;;;5070771;28;20128;-78
2022/06/15 03:19:12;;;;;;;17.35;7.35;;;10.60;99.90;;;;;;5070979;28;20056;-78
2022/06/15 03:21:38;;;;;;;16.88;7.15;;;10.60;99.90;;;;;;5068902;28;20048;-78
2022/06/15 03:24:05;;;;;;;20.63;7.63;;;10.50;99.90;;;;;;5067897;28;20052;-78
2022/06/15 03:26:30;;;;;;;18.60;8.57;;;10.60;99.90;;;;;;5066511;28;20136;-77
2022/06/15 03:28:56;;;;;;;23.27;8.48;;;10.60;99.90;;;;;;5066517;28;20504;-77
2022/06/15 03:31:22;;;;;;;25.35;8.63;;;10.60;99.90;;;;;;5067426;28;20198;-78
2022/06/15 03:33:47;;;;;;;20.67;8.15;;;10.60;99.90;;;;;;5069876;28;20045;-79
2022/06/15 03:36:13;;;;;;;16.38;8.75;;;10.60;99.90;;;;;;5068590;28;20115;-79
2022/06/15 03:38:39;;;;;;;19.00;8.20;;;10.60;99.90;;;;;;5049248;28;20441;-78
2022/06/15 03:41:05;;;;;;;17.95;8.23;;;10.60;99.90;;;;;;5065267;28;20052;-76
2022/06/15 03:43:31;;;;;;;18.45;8.38;;;10.60;99.90;;;;;;5068468;28;20040;-77
2022/06/15 03:45:57;;;;;;;23.02;8.57;;;10.70;99.90;;;;;;5054053;28;20053;-77
2022/06/15 03:48:23;;;;;;;16.70;8.55;;;10.70;99.90;;;;;;5064486;28;20049;-77
2022/06/15 03:50:48;;;;;;;19.13;7.95;;;10.80;99.90;;;;;;5053822;28;20064;-78
2022/06/15 03:53:14;;;;;;;27.77;9.48;;;10.90;99.90;;;;;;5020386;28;20493;-77
2022/06/15 03:55:41;;;;;;;19.38;9.00;;;11.00;99.90;;;;;;5052818;28;20048;-77
2022/06/15 03:58:10;;;;;;;25.25;8.30;;;11.00;99.90;;;;;;5055148;28;20101;-79
2022/06/15 04:00:36;;;;;;;21.92;8.43;;;11.00;99.90;;;;;;5073186;28;20052;-78
2022/06/15 04:03:01;;;;;;;26.95;10.32;;;11.00;99.90;;;;;;5066438;28;20090;-77
2022/06/15 04:05:39;;;;;;;19.83;8.18;;;11.00;99.90;;;;;;5087897;28;20406;-78
2022/06/15 04:10:49;;;;;;;17.65;8.20;;;11.10;99.90;;;;;;5054392;28;20386;-78
2022/06/15 04:13:15;;;;;;;16.15;8.20;;;11.10;99.90;;;;;;5052439;28;20078;-77
2022/06/15 04:15:42;;;;;;;16.58;8.07;;;11.20;99.90;;;;;;5053668;28;20366;-77
2022/06/15 04:18:08;;;;;;;18.77;7.75;;;11.20;99.90;;;;;;5054603;28;20048;-78
2022/06/15 04:20:36;;;;;;;14.80;7.65;;;11.30;99.90;;;;;;5055410;28;20045;-78
2022/06/15 04:23:05;;;;;;;18.02;8.45;;;11.30;99.90;;;;;;5092150;28;20060;-78
2022/06/15 04:25:47;;;;;;;19.30;8.48;;;11.40;99.90;;;;;;5053809;28;20037;-76
2022/06/15 04:28:15;;;;;;;17.20;8.20;;;11.40;99.90;;;;;;5054935;28;20048;-76
2022/06/15 04:30:41;;;;;;;21.13;8.32;;;11.50;99.90;;;;;;5037453;28;20477;-78
2022/06/15 04:33:09;;;;;;;15.95;7.60;;;11.50;99.90;;;;;;5058877;28;20044;-77
2022/06/15 04:35:36;;;;;;;20.60;8.95;;;11.60;99.90;;;;;;5040616;28;20056;-78
2022/06/15 04:38:02;;;;;;;15.02;7.18;;;11.60;99.90;;;;;;5041390;28;20408;-78
2022/06/15 04:40:30;;;;;;;18.23;8.27;;;11.60;99.90;;;;;;5065027;28;20056;-80
2022/06/15 04:42:56;;;;;;;18.33;7.80;;;11.70;99.90;;;;;;5055035;28;20041;-78
2022/06/15 04:45:24;;;;;;;17.25;8.02;;;11.70;99.90;;;;;;5054880;28;20044;-78
2022/06/15 04:47:50;;;;;;;19.73;8.13;;;11.80;99.90;;;;;;5053057;28;20045;-78
2022/06/15 04:50:16;;;;;;;20.55;8.57;;;11.80;99.90;;;;;;5036222;28;20051;-78
2022/06/15 04:52:43;;;;;;;17.40;7.83;;;11.90;99.90;;;;;;5038782;28;20469;-78
2022/06/15 04:55:12;;;;;;;19.13;7.93;;;11.90;99.90;;;;;;5060954;28;20103;-77
2022/06/15 04:57:38;;;;;;;18.73;8.23;;;12.00;99.90;;;;;;5056106;28;20045;-77
2022/06/15 05:00:11;;;;;;;14.95;7.60;;;12.10;99.90;;;;;;5064197;28;20068;-79
2022/06/15 05:02:37;;;;;;;20.08;7.40;;;12.10;99.90;;;;;;5059285;28;20037;-78
2022/06/15 05:05:03;;;;;;;19.90;7.25;;;12.20;99.90;;;;;;5065275;28;20064;-78
2022/06/15 05:07:29;;;;;;;22.80;7.40;;;12.30;99.90;;;;;;5061960;28;20045;-79
2022/06/15 05:09:56;;;;;;;18.40;7.57;;;12.40;99.90;;;;;;5060350;28;20088;-79
2022/06/15 05:12:23;;;;;;;18.63;7.88;;;12.40;99.90;;;;;;5063125;28;20056;-79
2022/06/15 05:14:49;;;;;;;23.17;8.70;;;12.60;99.90;;;;;;5041953;28;20388;-78
2022/06/15 05:17:20;;;;;;;20.27;8.18;;;12.60;99.90;;;;;;5055008;28;20041;-77
2022/06/15 05:19:46;;;;;;;13.65;7.43;;;12.60;99.90;;;;;;5055830;28;20137;-78
2022/06/15 05:22:12;;;;;;;20.27;7.78;;;12.70;99.90;;;;;;5052291;28;20102;-79
2022/06/15 05:24:39;;;;;;;17.20;7.40;;;12.70;99.90;;;;;;5052984;28;20053;-79
2022/06/15 05:27:05;;;;;;;17.73;8.10;;;12.70;99.90;;;;;;5034853;28;20059;-80
2022/06/15 05:29:31;;;;;;;19.43;8.27;;;12.80;99.90;;;;;;5052545;28;20136;-77
2022/06/15 05:31:57;;;;;;;20.08;8.20;;;12.90;99.90;;;;;;5052373;28;20088;-78
2022/06/15 05:34:23;;;;;;;19.15;8.48;;;12.90;99.90;;;;;;5035145;28;20076;-79
2022/06/15 05:36:49;;;;;;;17.37;8.10;;;13.00;99.90;;;;;;5050587;28;20132;-79
2022/06/15 05:39:15;;;;;;;22.10;8.15;;;13.00;99.90;;;;;;5055188;28;20057;-79
2022/06/15 05:41:42;;;;;;;21.63;8.80;;;13.10;99.90;;;;;;5051322;28;20178;-79
2022/06/15 05:46:35;;;;;;;18.23;8.03;;;13.30;99.90;;;;;;5051957;28;20057;-80
2022/06/15 05:49:03;;;;;;;21.50;8.60;;;13.40;99.90;;;;;;5055701;28;20283;-78
2022/06/15 05:51:29;;;;;;;19.92;8.90;;;13.40;99.90;;;;;;5052437;28;20133;-80
2022/06/15 05:53:55;;;;;;;22.88;8.93;;;13.50;99.90;;;;;;5052536;28;20080;-81
2022/06/15 05:56:22;;;;;;;24.92;9.07;;;13.60;99.90;;;;;;5050218;28;20127;-80
2022/06/15 05:58:49;;;;;;;22.40;9.10;;;13.60;99.90;;;;;;5052888;28;20254;-80
2022/06/15 06:01:23;;;;;;;17.58;8.35;;;13.70;99.90;;;;;;5051436;28;20194;-79
2022/06/15 06:03:50;;;;;;;21.60;9.23;;;13.60;99.90;;;;;;5053950;28;20053;-81
2022/06/15 06:06:16;;;;;;;21.00;8.98;;;13.70;99.90;;;;;;5053234;28;20048;-80
2022/06/15 06:08:42;;;;;;;23.85;9.45;;;13.80;99.90;;;;;;5038020;28;20080;-81
2022/06/15 06:11:08;;;;;;;20.58;9.18;;;13.80;99.90;;;;;;5036475;28;20045;-80
2022/06/15 06:13:33;;;;;;;22.08;8.82;;;13.80;99.90;;;;;;5053631;28;20135;-79
2022/06/15 06:15:59;;;;;;;24.02;8.20;;;14.00;99.90;;;;;;5071848;28;20048;-80
2022/06/15 06:18:25;;;;;;;18.83;8.48;;;14.00;99.90;;;;;;5059890;28;20525;-81
2022/06/15 06:20:53;;;;;;;21.13;8.55;;;14.00;99.90;;;;;;5059357;28;20462;-81
2022/06/15 06:23:22;;;;;;;21.25;8.60;;;14.20;99.90;;;;;;5042939;28;20052;-82
2022/06/15 06:25:50;;;;;;;20.75;8.77;;;14.30;99.90;;;;;;5040693;28;20049;-79
2022/06/15 06:28:29;;;;;;;21.25;9.32;;;14.30;99.90;;;;;;5075579;28;20403;-81
2022/06/15 06:31:00;;;;;;;23.23;8.35;;;14.40;99.90;;;;;;5076456;28;20080;-80
2022/06/15 06:33:30;;;;;;;16.20;7.55;;;14.50;99.90;;;;;;5078769;28;20044;-82
2022/06/15 06:35:58;;;;;;;18.65;7.90;;;14.60;99.90;;;;;;5044541;28;20040;-81
2022/06/15 06:38:24;;;;;;;18.55;7.97;;;14.70;99.90;;;;;;5076988;28;20057;-79
2022/06/15 06:40:58;;;;;;;16.17;6.68;;;14.90;99.90;;;;;;5075411;28;20048;-82
2022/06/15 06:43:24;;;;;;;17.75;7.63;;;15.00;99.90;;;;;;5076360;28;20051;-81
2022/06/15 06:45:50;;;;;;;17.15;7.80;;;15.10;99.90;;;;;;5076036;28;20044;-80
2022/06/15 06:48:16;;;;;;;16.35;7.32;;;15.20;99.90;;;;;;5075545;28;20396;-80
2022/06/15 06:50:42;;;;;;;24.80;8.07;;;15.30;99.90;;;;;;5057731;28;20044;-80
2022/06/15 06:53:13;;;;;;;15.23;6.72;;;15.40;99.90;;;;;;5075058;28;20131;-81
2022/06/15 06:55:40;;;;;;;18.50;6.53;;;15.50;99.90;;;;;;5072186;28;20052;-79
2022/06/15 06:58:07;;;;;;;16.45;7.15;;;15.70;99.90;;;;;;5070709;28;20056;-80
2022/06/15 07:03:35;;;;;;;15.32;7.22;;;15.90;99.90;;;;;;5036313;28;20049;-81
2022/06/15 07:06:04;;;;;;;;;;;16.00;99.90;;;;;;5053407;28;20048;-80
2022/06/15 07:08:31;;;;;;;15.88;6.88;;;16.10;99.90;;;;;;5053808;28;19944;-80
2022/06/15 07:10:59;;;;;;;15.93;6.13;;;16.20;99.90;;;;;;5051603;28;20080;-80
2022/06/15 07:13:28;;;;;;;15.23;6.68;;;16.30;99.90;;;;;;5020339;28;20057;-83
2022/06/15 07:15:54;;;;;;;15.40;6.63;;;16.40;99.90;;;;;;5051005;28;20194;-79
2022/06/15 07:18:20;;;;;;;18.30;6.77;;;16.50;99.90;;;;;;5036505;28;20124;-79
2022/06/15 07:20:46;;;;;;;15.68;6.38;;;16.60;99.90;;;;;;5034004;28;20132;-81
2022/06/15 07:23:12;;;;;;;20.60;6.90;;;16.70;99.90;;;;;;5050561;28;20086;-80
2022/06/15 07:25:37;;;;;;;13.13;5.45;;;16.70;99.90;;;;;;5056048;28;20057;-80
2022/06/15 07:28:03;;;;;;;14.23;6.40;;;16.90;99.90;;;;;;5057615;28;20124;-80
2022/06/15 07:30:30;;;;;;;20.73;6.53;;;16.90;99.90;;;;;;5058979;28;20040;-79
2022/06/15 07:32:56;;;;;;;19.25;6.95;;;17.00;99.90;;;;;;5060185;28;20398;-81
2022/06/15 07:35:30;;;;;;;18.75;6.15;;;17.10;99.90;;;;;;5041275;28;20055;-82
2022/06/15 07:37:56;;;;;;;21.63;6.47;;;17.20;99.90;;;;;;5056755;28;20048;-80
2022/06/15 07:40:24;;;;;;;17.88;6.50;;;17.30;99.90;;;;;;5055703;28;20431;-80
2022/06/15 07:42:52;;;;;;;22.88;7.05;;;17.30;99.90;;;;;;5053141;28;20547;-80
2022/06/15 07:45:19;;;;;;;16.02;5.70;;;17.40;99.90;;;;;;5054844;28;20551;-78
2022/06/15 07:50:31;;;;;;;14.95;6.55;;;17.40;99.90;;;;;;5053260;28;20045;-78
2022/06/15 07:52:56;;;;;;;13.82;6.47;;;17.60;99.90;;;;;;5054505;28;20045;-78
2022/06/15 07:55:30;;;;;;;15.60;5.80;;;17.70;99.90;;;;;;5052537;28;20115;-79
2022/06/15 07:57:56;;;;;;;20.83;6.68;;;17.80;99.90;;;;;;5036977;28;20041;-83
2022/06/15 08:00:23;;;;;;;16.02;5.35;;;17.90;99.90;;;;;;5055033;28;20056;-78
2022/06/15 08:02:50;;;;;;;19.55;6.45;;;17.90;99.90;;;;;;5054367;28;20064;-81
2022/06/15 08:05:16;;;;;;;;;;;;;;;;;;5054749;28;20125;-79
2022/06/15 08:07:44;;;;;;;12.15;4.45;;;18.10;99.90;;;;;;5054197;28;19990;-79
2022/06/15 08:10:13;;;;;;;13.13;4.57;;;18.10;99.90;;;;;;5037173;28;20057;-80
2022/06/15 08:12:40;;;;;;;17.75;5.45;;;18.20;99.90;;;;;;5052514;28;20120;-80
2022/06/15 08:15:06;;;;;;;16.38;4.63;;;18.30;99.90;;;;;;5053699;28;20055;-83
2022/06/15 08:17:42;;;;;;;11.10;4.10;;;18.40;99.90;;;;;;5054702;28;20060;-82
2022/06/15 08:20:14;;;;;;;11.43;3.20;;;18.40;99.90;;;;;;5054693;28;20091;-82
2022/06/15 08:22:44;;;;;;;8.00;3.25;;;18.50;99.90;;;;;;5054892;28;20386;-77
2022/06/15 08:25:16;;;;;;;13.05;3.83;;;18.60;99.90;;;;;;5054535;28;20045;-79
2022/06/15 08:27:42;;;;;;;11.63;3.25;;;18.70;99.90;;;;;;5055011;28;20076;-80
2022/06/15 08:30:10;;;;;;;12.50;3.15;;;18.70;99.90;;;;;;5055067;28;20132;-81
2022/06/15 08:32:37;;;;;;;10.38;2.42;;;18.70;99.90;;;;;;5054858;28;20393;-79
2022/06/15 08:35:04;;;;;;;8.80;2.67;;;18.80;99.90;;;;;;5053433;28;20052;-79
2022/06/15 08:37:30;;;;;;;6.90;2.50;;;18.80;98.30;;;;;;5051676;28;20043;-78
2022/06/15 08:39:55;;;;;;;8.80;2.80;;;18.80;98.90;;;;;;5052835;28;20049;-78
2022/06/15 08:42:58;;;;;;;11.10;2.77;;;18.80;99.50;;;;;;5052727;28;20208;-83
2022/06/15 08:45:26;;;;;;;10.65;2.38;;;18.80;99.00;;;;;;5055262;28;20056;-77
2022/06/15 08:48:23;;;;;;;6.05;1.65;;;18.80;96.90;;;;;;5036962;28;20379;-78
2022/06/15 08:51:22;;;;;;;9.13;2.30;;;18.70;92.90;;;;;;5053305;28;20455;-80
2022/06/15 08:54:17;;;;;;;10.73;2.60;;;18.90;94.30;;;;;;5055143;28;20504;-79
2022/06/15 08:56:59;;;;;;;8.80;2.15;;;19.00;93.80;;;;;;5052125;28;20041;-78
2022/06/15 08:59:32;;;;;;;6.38;1.92;;;19.20;94.80;;;;;;5052482;28;20075;-80
2022/06/15 09:02:05;;;;;;;8.82;2.28;;;19.40;95.00;;;;;;5053777;28;20114;-80
2022/06/15 09:05:02;;;;;;;17.23;2.60;;;19.60;94.30;;;;;;5053176;28;20499;-83
2022/06/15 09:08:02;;;;;;;11.40;3.10;;;19.70;93.90;;;;;;5054868;28;20501;-79
2022/06/15 09:10:33;;;;;;;12.25;2.88;;;19.70;94.00;;;;;;5056085;28;20500;-81
2022/06/15 09:13:27;;;;;;;8.50;2.75;;;19.30;91.30;;;;;;5054255;28;20485;-82
2022/06/15 09:16:14;;;;;;;9.00;3.22;;;19.50;92.40;;;;;;5055950;28;20045;-83
2022/06/15 09:18:39;;;;;;;;;;;19.60;91.50;;;;;;5056940;28;20530;-82
2022/06/15 09:21:19;;;;;;;10.77;2.37;;;19.70;92.30;;;;;;5056223;28;19968;-82
2022/06/15 09:23:57;;;;;;;10.23;2.60;;;19.70;91.30;;;;;;5060709;28;20091;-81
2022/06/15 09:26:51;;;;;;;10.27;2.58;;;19.80;89.20;;;;;;5075374;28;20053;-80
2022/06/15 09:29:35;;;;;;;11.77;2.45;;;20.00;91.30;;;;;;5059381;28;20052;-82
2022/06/15 09:32:14;;;;;;;10.27;2.50;;;20.00;90.10;;;;;;5056229;28;20071;-82
2022/06/15 09:34:51;;;;;;;9.20;2.42;;;20.10;91.30;;;;;;5056992;28;20068;-81
2022/06/15 09:37:18;;;;;;;;;;;20.30;90.20;;;;;;5056695;28;20044;-76
2022/06/15 09:39:44;;;;;;;6.57;2.33;;;20.50;90.50;;;;;;5040094;28;19921;-80
2022/06/15 09:42:33;;;;;;;12.45;2.80;;;20.60;90.60;;;;;;5056076;28;20045;-80
2022/06/15 09:45:31;;;;;;;7.72;2.55;;;20.60;83.60;;;;;;5036192;28;20049;-80
2022/06/15 09:48:03;;;;;;;9.00;2.55;;;20.60;89.50;;;;;;5059111;28;20045;-78
2022/06/15 09:50:37;;;;;;;12.88;2.60;;;20.60;88.30;;;;;;5063578;28;20052;-81
2022/06/15 09:53:28;;;;;;;9.20;2.50;;;20.70;88.40;;;;;;5057951;28;20458;-81
2022/06/15 09:56:06;;;;;;;7.20;2.45;;;20.80;86.40;;;;;;5056873;28;20048;-78
2022/06/15 09:58:56;;;;;;;14.32;2.90;;;21.00;87.40;;;;;;5055737;28;20052;-79
2022/06/15 10:01:26;;;;;;;9.55;3.17;;;20.90;85.70;;;;;;5060132;28;20044;-79
2022/06/15 10:03:54;;;;;;;9.18;3.50;;;20.90;86.60;;;;;;5056387;28;20053;-83
2022/06/15 10:06:27;;;;;;;8.68;3.42;;;20.60;84.70;;;;;;5058311;28;20132;-78
2022/06/15 10:08:55;;;;;;;12.23;3.60;;;20.50;86.10;;;;;;5058471;28;20111;-80
2022/06/15 10:11:47;;;;;;;12.75;3.00;;;20.30;86.00;;;;;;5055408;28;20124;-77
2022/06/15 10:14:23;;;;;;;9.15;3.05;;;20.50;87.50;;;;;;5052892;28;20086;-83
2022/06/15 10:17:32;;;;;;;11.23;2.72;;;20.60;87.30;;;;;;5054196;28;20049;-76
2022/06/15 10:19:59;;;;;;;11.15;3.28;;;20.70;86.20;;;;;;5055859;28;20508;-79
2022/06/15 10:22:31;;;;;;;14.88;2.60;;;20.70;84.40;;;;;;5054642;28;20107;-80
2022/06/15 10:24:59;;;;;;;8.73;2.75;;;21.00;85.30;;;;;;5058792;28;20041;-82
2022/06/15 10:27:30;;;;;;;11.63;3.03;;;21.00;81.20;;;;;;5055281;28;20040;-78
2022/06/15 10:30:07;;;;;;;7.55;2.67;;;21.00;81.00;;;;;;5058013;28;20098;-79
2022/06/15 10:32:39;;;;;;;10.15;3.30;;;20.50;81.10;;;;;;5059046;28;20044;-79
2022/06/15 10:35:19;;;;;;;8.50;2.80;;;20.50;81.10;;;;;;5052538;28;20393;-79
2022/06/15 10:37:54;;;;;;;6.82;2.40;;;20.80;83.50;;;;;;5052409;28;20144;-78
2022/06/15 10:40:23;;;;;;;10.55;2.80;;;20.70;81.00;;;;;;5054414;28;20756;-80
2022/06/15 10:43:18;;;;;;;13.43;2.88;;;21.00;82.00;;;;;;5037734;28;20481;-79
2022/06/15 10:45:53;;;;;;;11.02;2.92;;;21.10;83.50;;;;;;5055702;28;20057;-81
2022/06/15 10:48:44;;;;;;;8.65;2.85;;;21.40;82.90;;;;;;5056995;28;20056;-80
2022/06/15 10:51:30;;;;;;;10.52;2.83;;;21.50;82.00;;;;;;5056830;28;20040;-80
2022/06/15 10:54:17;;;;;;;8.75;2.67;;;21.70;82.10;;;;;;5053797;28;20056;-80
2022/06/15 11:02:39;;;;;;;13.27;2.80;;;21.70;78.30;;;;;;5058200;28;20119;-82
2022/06/15 11:05:06;;;;;;;9.82;3.17;;;21.60;78.10;;;;;;5058800;28;20088;-78
2022/06/15 11:07:54;;;;;;;9.73;2.85;;;21.80;79.50;;;;;;5056001;28;20067;-78
2022/06/15 11:10:27;;;;;;;8.43;2.97;;;21.80;79.70;;;;;;5058053;28;20053;-79
2022/06/15 11:12:58;;;;;;;10.93;2.90;;;21.20;74.70;;;;;;5057333;28;20048;-78
2022/06/15 11:18:32;;;;;;;10.73;3.10;;;21.70;76.70;;;;;;5059639;28;20064;-79
2022/06/15 11:21:19;;;;;;;9.07;2.75;;;21.90;76.00;;;;;;5046341;28;20053;-80
2022/06/15 11:23:44;;;;;;;8.35;2.90;;;22.10;75.10;;;;;;5046306;28;20485;-78
2022/06/15 11:29:41;;;;;;;9.93;3.05;;;22.30;76.20;;;;;;5061900;28;20049;-82
2022/06/15 11:32:12;;;;;;;11.27;3.60;;;22.40;75.00;;;;;;5057983;28;20045;-78
2022/06/15 11:34:49;;;;;;;13.23;3.45;;;22.50;75.40;;;;;;5062152;28;20052;-79
2022/06/15 11:37:22;;;;;;;7.78;3.50;;;22.40;74.20;;;;;;5044675;28;20047;-82
2022/06/15 11:40:01;;;;;;;7.13;2.60;;;21.70;70.10;;;;;;5050156;28;20060;-79
2022/06/15 11:42:28;;;;;;;14.35;3.40;;;21.90;74.40;;;;;;5062396;28;20112;-80
2022/06/15 11:44:54;;;;;;;9.40;3.38;;;21.90;73.60;;;;;;5067303;28;20422;-79
2022/06/15 11:47:55;;;;;;;9.50;2.97;;;22.10;74.00;;;;;;5064446;28;20055;-80
2022/06/15 11:51:02;;;;;;;12.43;3.25;;;22.40;74.00;;;;;;5065625;28;20068;-80
2022/06/15 11:53:43;;;;;;;10.70;3.50;;;22.50;73.40;;;;;;5060219;28;20092;-76
2022/06/15 11:56:11;;;;;;;9.65;3.30;;;22.60;69.70;;;;;;5063496;28;20045;-80
2022/06/15 11:59:19;;;;;;;9.90;3.30;;;22.60;72.70;;;;;;5062217;28;20049;-79
2022/06/15 12:02:03;;;;;;;9.98;3.47;;;22.30;72.50;;;;;;5050177;28;20092;-79
2022/06/15 12:05:21;;;;;;;16.02;3.90;;;22.40;72.50;;;;;;5061772;28;20041;-82
2022/06/15 12:08:12;;;;;;;9.65;3.30;;;22.40;71.80;;;;;;5037673;28;20057;-77
2022/06/15 12:10:41;;;;;;;10.00;3.45;;;22.50;73.20;;;;;;5060280;28;20096;-81
2022/06/15 12:13:20;;;;;;;11.95;3.22;;;22.60;74.30;;;;;;5055698;28;20401;-79
2022/06/15 12:15:57;;;;;;;8.90;3.00;;;22.60;72.30;;;;;;5056526;28;20136;-79
2022/06/15 12:18:43;;;;;;;10.82;3.97;;;22.70;71.20;;;;;;5055799;28;20059;-80
2022/06/15 12:21:20;;;;;;;;;;;22.80;71.60;;;;;;5057742;28;20562;-79
2022/06/15 12:24:14;;;;;;;9.98;3.20;;;22.90;72.00;;;;;;5056703;28;19921;-78
2022/06/15 12:26:50;;;;;;;8.80;3.10;;;22.50;66.00;;;;;;5053407;28;20041;-77
2022/06/15 12:29:37;;;;;;;10.75;3.28;;;22.60;68.00;;;;;;5055008;28;20128;-82
2022/06/15 12:35:29;;;;;;;10.85;3.38;;;22.40;70.00;;;;;;5057912;28;20052;-82
2022/06/15 12:38:01;;;;;;;8.98;2.78;;;22.20;71.50;;;;;;5056211;28;20037;-79
2022/06/15 12:40:38;;;;;;;7.65;3.15;;;22.50;71.40;;;;;;5054705;28;20049;-80
2022/06/15 12:43:34;;;;;;;10.27;3.83;;;22.20;70.10;;;;;;5060149;28;20048;-78
2022/06/15 12:46:06;;;;;;;;;;;22.30;70.90;;;;;;5058989;28;20056;-79
2022/06/15 12:48:58;;;;;;;10.38;3.65;;;22.10;70.50;;;;;;5054587;28;19971;-80
2022/06/15 12:51:51;;;;;;;13.25;3.63;;;22.20;69.00;;;;;;5054255;28;20041;-78
2022/06/15 12:54:55;;;;;;;11.77;3.53;;;22.10;72.10;;;;;;5053826;28;20041;-80
2022/06/15 12:57:53;;;;;;;9.80;2.97;;;22.20;69.00;;;;;;5053156;28;20077;-82
2022/06/15 13:00:30;;;;;;;7.93;3.08;;;22.30;70.40;;;;;;5057120;28;20094;-79
2022/06/15 13:03:17;;;;;;;12.50;3.53;;;22.30;68.70;;;;;;5063864;28;20045;-81
2022/06/15 13:05:44;;;;;;;10.85;3.45;;;22.00;68.30;;;;;;5074108;28;20107;-82
2022/06/15 13:08:20;;;;;;;8.25;3.80;;;22.20;69.90;;;;;;5058855;28;20088;-80
2022/06/15 13:10:56;;;;;;;9.38;3.40;;;22.20;69.10;;;;;;5075867;28;20080;-81
2022/06/15 13:13:45;;;;;;;14.23;3.70;;;22.40;69.70;;;;;;5075886;28;20049;-80
2022/06/15 13:16:39;;;;;;;12.35;4.00;;;22.40;68.40;;;;;;5076255;28;20053;-79
2022/06/15 13:19:07;;;;;;;10.15;3.42;;;22.20;68.10;;;;;;5074330;28;20041;-78
2022/06/15 13:22:13;;;;;;;12.38;3.15;;;22.40;69.80;;;;;;5058158;28;20409;-80
2022/06/15 13:25:03;;;;;;;16.55;3.50;;;22.10;67.50;;;;;;5038328;28;20041;-78
2022/06/15 13:27:55;;;;;;;9.00;3.28;;;22.30;67.20;;;;;;5071533;28;20099;-80
2022/06/15 13:30:48;;;;;;;10.48;2.88;;;22.60;69.50;;;;;;5052813;28;20542;-82
2022/06/15 13:33:15;;;;;;;9.65;3.95;;;22.70;69.10;;;;;;5075066;28;20443;-80
2022/06/15 13:36:06;;;;;;;10.35;3.63;;;22.80;67.80;;;;;;5074785;28;20135;-80
2022/06/15 13:38:34;;;;;;;10.13;3.50;;;23.00;68.70;;;;;;5067251;28;20480;-79
2022/06/15 13:41:00;;;;;;;9.27;3.15;;;23.00;65.90;;;;;;5073303;28;20127;-82